Time;durP1;ratioP1;P1;durP2;ratioP2;P2;SDS_P1;SDS_P2;PMS_P1;PMS_P2;Temp;Humidity;BMP_temperature;BMP_pressure;BME280_temperature;BME280_humidity;BME280_pressure;Samples;Min_cycle;Max_cycle;Signal;HPM_P1;HPM_P2
2021/10/07 02:45:42;;;;;;;8.90;6.18;;;12.80;99.90;;;;;;5562094;24;20070;-82
2021/10/07 02:48:09;;;;;;;11.48;6.88;;;12.90;99.90;;;;;;4748823;30;20039;-82
2021/10/07 02:50:35;;;;;;;15.35;7.32;;;13.00;99.90;;;;;;4750000;30;20036;-83
2021/10/07 02:53:01;;;;;;;12.73;8.30;;;13.00;99.90;;;;;;4735095;30;20046;-82
2021/10/07 02:55:26;;;;;;;13.35;7.60;;;13.10;99.90;;;;;;4764515;30;20028;-81
2021/10/07 02:57:52;;;;;;;18.30;8.80;;;13.00;99.90;;;;;;4764744;30;20263;-82
2021/10/07 03:00:19;;;;;;;19.35;8.93;;;13.00;99.90;;;;;;4749870;30;20028;-82
2021/10/07 03:02:46;;;;;;;17.80;7.90;;;12.90;99.90;;;;;;4750165;30;20140;-83
2021/10/07 03:05:13;;;;;;;16.93;7.90;;;12.90;99.90;;;;;;4766023;30;20028;-82
2021/10/07 03:07:39;;;;;;;14.18;8.40;;;12.90;99.90;;;;;;4764710;30;20281;-82
2021/10/07 03:10:09;;;;;;;18.52;8.60;;;12.90;99.90;;;;;;4736012;30;20024;-82
2021/10/07 03:12:34;;;;;;;14.05;8.65;;;12.90;99.90;;;;;;4750948;30;20060;-83
2021/10/07 03:15:00;;;;;;;18.90;9.23;;;12.80;99.90;;;;;;4765329;30;20081;-83
2021/10/07 03:17:26;;;;;;;16.33;9.55;;;12.80;99.90;;;;;;4761878;30;20089;-83
2021/10/07 03:19:53;;;;;;;14.43;7.90;;;12.80;99.90;;;;;;4783820;30;20032;-83
2021/10/07 03:22:21;;;;;;;17.23;8.15;;;12.80;99.90;;;;;;4753464;30;20465;-84
2021/10/07 03:24:50;;;;;;;21.60;8.50;;;12.80;99.90;;;;;;4753209;30;20035;-84
2021/10/07 03:27:18;;;;;;;17.20;8.43;;;12.80;99.90;;;;;;4753680;30;20084;-83
2021/10/07 03:29:44;;;;;;;18.52;9.27;;;12.90;99.90;;;;;;4754187;30;20140;-83
2021/10/07 03:32:09;;;;;;;15.45;8.73;;;12.90;99.90;;;;;;4753476;30;20040;-83
2021/10/07 03:34:35;;;;;;;18.08;8.95;;;12.90;99.90;;;;;;4768280;30;20039;-83
2021/10/07 03:37:01;;;;;;;17.05;7.97;;;12.90;99.90;;;;;;4753637;30;20174;-83
2021/10/07 03:39:26;;;;;;;17.73;9.98;;;12.90;99.90;;;;;;4753738;30;20046;-83
2021/10/07 03:41:52;;;;;;;17.38;8.80;;;12.90;99.90;;;;;;4753552;30;20036;-83
2021/10/07 03:44:18;;;;;;;17.35;8.68;;;13.00;99.90;;;;;;4768647;30;20043;-83
2021/10/07 03:46:44;;;;;;;16.05;8.82;;;13.00;99.90;;;;;;4762057;30;20315;-83
2021/10/07 03:49:10;;;;;;;13.30;8.32;;;12.90;99.90;;;;;;4735297;30;20114;-83
2021/10/07 03:51:36;;;;;;;15.00;9.10;;;13.00;99.90;;;;;;4750119;30;20028;-83
2021/10/07 03:54:01;;;;;;;16.45;8.48;;;12.90;99.90;;;;;;4750203;30;20044;-83
2021/10/07 03:56:27;;;;;;;19.45;9.02;;;12.90;99.90;;;;;;4750118;30;20063;-83
2021/10/07 03:58:53;;;;;;;15.57;9.60;;;12.90;99.90;;;;;;4750269;30;20048;-83
2021/10/07 04:01:19;;;;;;;13.38;9.38;;;12.90;99.90;;;;;;4750190;30;20059;-83
2021/10/07 04:03:44;;;;;;;20.55;8.57;;;12.90;99.90;;;;;;4735517;30;20067;-83
2021/10/07 04:06:11;;;;;;;12.65;8.70;;;12.90;99.90;;;;;;4766181;30;20021;-83
2021/10/07 04:08:36;;;;;;;19.58;10.30;;;13.00;99.90;;;;;;4750067;30;20131;-82
2021/10/07 04:11:02;;;;;;;15.23;8.82;;;13.00;99.90;;;;;;4750317;30;20036;-82
2021/10/07 04:13:28;;;;;;;18.83;9.00;;;13.00;99.90;;;;;;4735330;30;20100;-83
2021/10/07 04:15:54;;;;;;;18.85;8.85;;;13.10;99.90;;;;;;4750063;30;20035;-83
2021/10/07 04:18:20;;;;;;;14.05;8.65;;;13.10;99.90;;;;;;4753939;30;20059;-83
2021/10/07 04:20:47;;;;;;;14.10;9.45;;;13.10;99.90;;;;;;4753780;30;20035;-83
2021/10/07 04:23:14;;;;;;;16.02;9.45;;;13.10;99.90;;;;;;4753525;30;20031;-83
2021/10/07 04:25:40;;;;;;;14.18;9.63;;;13.10;99.90;;;;;;4753238;30;20043;-83
2021/10/07 04:28:07;;;;;;;16.08;10.02;;;13.10;99.90;;;;;;4783788;30;20043;-83
2021/10/07 04:30:34;;;;;;;17.48;9.07;;;13.10;99.90;;;;;;4752734;30;20035;-83
2021/10/07 04:33:05;;;;;;;17.05;9.75;;;13.10;99.90;;;;;;4753206;30;20035;-83
2021/10/07 04:35:31;;;;;;;16.00;8.45;;;13.10;99.90;;;;;;4752639;30;20040;-82
2021/10/07 04:37:58;;;;;;;16.77;8.98;;;13.10;99.90;;;;;;4752434;30;20028;-82
2021/10/07 04:40:25;;;;;;;13.25;9.40;;;13.10;99.90;;;;;;4752020;30;20096;-83
2021/10/07 04:42:51;;;;;;;12.40;7.80;;;13.10;99.90;;;;;;4751794;30;20036;-83
2021/10/07 04:45:16;;;;;;;11.98;8.45;;;13.10;99.90;;;;;;4782867;30;20035;-84
2021/10/07 04:47:42;;;;;;;16.30;8.30;;;13.10;99.90;;;;;;4753997;30;20048;-83
2021/10/07 04:50:08;;;;;;;17.33;8.93;;;13.20;99.90;;;;;;4749268;30;20040;-82
2021/10/07 04:52:35;;;;;;;18.83;9.43;;;13.20;99.90;;;;;;4749422;30;20224;-82
2021/10/07 04:55:01;;;;;;;14.75;8.65;;;13.20;99.90;;;;;;4734674;30;20039;-82
2021/10/07 04:57:26;;;;;;;15.32;9.10;;;13.20;99.90;;;;;;4734354;30;20335;-82
2021/10/07 04:59:52;;;;;;;13.90;9.80;;;13.10;99.90;;;;;;4749512;30;20036;-83
2021/10/07 05:02:18;;;;;;;13.73;8.70;;;13.20;99.90;;;;;;4735356;30;20339;-83
2021/10/07 05:04:43;;;;;;;14.27;8.90;;;13.20;99.90;;;;;;4735665;30;20042;-83
2021/10/07 05:07:09;;;;;;;12.57;8.90;;;13.20;99.90;;;;;;4735365;30;20036;-83
2021/10/07 05:09:35;;;;;;;14.93;8.82;;;13.30;99.90;;;;;;4735689;30;20032;-83
2021/10/07 05:12:01;;;;;;;12.95;8.25;;;13.30;99.90;;;;;;4750110;30;20344;-83
2021/10/07 05:14:26;;;;;;;18.52;10.40;;;13.30;99.90;;;;;;4735127;30;20043;-82
2021/10/07 05:16:52;;;;;;;13.88;9.82;;;13.40;99.90;;;;;;4749731;30;20040;-83
2021/10/07 05:19:18;;;;;;;11.70;8.50;;;13.40;99.90;;;;;;4765237;30;20032;-83
2021/10/07 05:21:44;;;;;;;15.80;11.05;;;13.30;99.90;;;;;;4750394;30;20035;-83
2021/10/07 05:24:09;;;;;;;15.35;10.25;;;13.30;99.90;;;;;;4735894;30;20047;-83
2021/10/07 05:26:35;;;;;;;18.70;10.25;;;13.30;99.90;;;;;;4765494;30;20039;-83
2021/10/07 05:29:01;;;;;;;10.50;8.90;;;13.30;99.90;;;;;;4736062;30;20032;-82
2021/10/07 05:31:27;;;;;;;14.93;8.85;;;13.30;99.90;;;;;;4735688;30;20028;-81
2021/10/07 05:33:52;;;;;;;11.98;8.60;;;13.40;99.90;;;;;;4750885;30;20032;-82
2021/10/07 05:36:18;;;;;;;12.57;9.02;;;13.40;99.90;;;;;;4736264;30;20028;-81
2021/10/07 05:38:44;;;;;;;12.43;8.55;;;13.40;99.90;;;;;;4735774;30;20038;-82
2021/10/07 05:41:10;;;;;;;14.70;8.75;;;13.40;99.90;;;;;;4735379;30;20036;-82
2021/10/07 05:43:35;;;;;;;14.90;8.73;;;13.40;99.90;;;;;;4749258;30;20107;-82
2021/10/07 05:46:01;;;;;;;12.65;8.38;;;13.50;99.90;;;;;;4744361;30;20079;-82
2021/10/07 05:48:27;;;;;;;14.27;9.30;;;13.50;99.90;;;;;;4735381;30;20028;-82
2021/10/07 05:50:54;;;;;;;12.70;8.60;;;13.50;99.90;;;;;;4744497;30;20075;-82
2021/10/07 05:53:19;;;;;;;12.93;8.68;;;13.50;99.90;;;;;;4748734;30;20036;-83
2021/10/07 05:55:45;;;;;;;16.13;9.55;;;13.60;99.90;;;;;;4741825;30;20522;-82
2021/10/07 05:58:11;;;;;;;10.18;8.30;;;13.60;99.90;;;;;;4740549;30;20099;-82
2021/10/07 06:00:37;;;;;;;14.35;9.23;;;13.60;99.90;;;;;;4745351;30;20029;-83
2021/10/07 06:03:08;;;;;;;17.08;9.30;;;13.60;99.90;;;;;;4747636;30;20033;-82
2021/10/07 06:05:34;;;;;;;10.68;8.55;;;13.70;99.90;;;;;;4748711;30;20068;-83
2021/10/07 06:08:00;;;;;;;12.27;8.05;;;13.70;99.90;;;;;;4750433;30;20090;-83
2021/10/07 06:10:26;;;;;;;12.05;9.77;;;13.80;99.90;;;;;;4735992;30;20039;-83
2021/10/07 06:12:52;;;;;;;11.00;8.45;;;13.90;99.90;;;;;;4726051;30;20212;-83
2021/10/07 06:15:18;;;;;;;10.95;7.75;;;13.80;99.90;;;;;;4734829;30;20063;-82
2021/10/07 06:17:44;;;;;;;10.10;8.13;;;13.90;99.90;;;;;;4744173;30;20040;-82
2021/10/07 06:20:20;;;;;;;12.00;8.15;;;13.90;99.90;;;;;;4739902;30;20632;-82
2021/10/07 06:22:47;;;;;;;11.60;9.07;;;13.90;99.90;;;;;;4750110;30;20036;-82
2021/10/07 06:25:14;;;;;;;13.57;9.02;;;13.80;99.90;;;;;;4723820;30;20111;-83
2021/10/07 06:27:40;;;;;;;10.87;8.23;;;13.80;99.90;;;;;;4737784;30;20037;-82
2021/10/07 06:30:06;;;;;;;11.50;7.80;;;13.80;99.90;;;;;;4735456;30;20025;-83
2021/10/07 06:32:32;;;;;;;10.50;8.13;;;13.90;99.90;;;;;;4751660;30;20056;-82
2021/10/07 06:34:57;;;;;;;13.05;8.50;;;13.90;99.90;;;;;;4736785;30;20274;-81
2021/10/07 06:37:23;;;;;;;12.57;8.38;;;13.90;99.90;;;;;;4736528;30;20039;-82
2021/10/07 06:39:49;;;;;;;13.95;6.95;;;14.00;99.90;;;;;;4741562;30;20030;-82
2021/10/07 06:42:15;;;;;;;10.05;8.18;;;14.00;99.90;;;;;;4751512;30;20028;-82
2021/10/07 06:44:40;;;;;;;10.20;8.13;;;14.10;99.90;;;;;;4748543;30;20060;-82
2021/10/07 06:47:06;;;;;;;12.07;7.68;;;14.20;99.90;;;;;;4734138;30;20239;-82
2021/10/07 06:49:32;;;;;;;10.30;8.18;;;14.20;99.90;;;;;;4749469;30;20235;-82
2021/10/07 06:51:58;;;;;;;12.15;8.50;;;14.20;99.90;;;;;;4750131;30;20028;-83
2021/10/07 06:54:29;;;;;;;15.90;10.38;;;14.20;99.90;;;;;;4743195;30;20397;-82
2021/10/07 06:56:55;;;;;;;16.40;8.63;;;14.20;99.90;;;;;;4738482;30;20043;-83
2021/10/07 06:59:20;;;;;;;11.95;9.48;;;14.20;99.90;;;;;;4735114;30;20320;-82
2021/10/07 07:01:46;;;;;;;13.57;8.48;;;14.20;99.90;;;;;;4740289;30;20028;-83
2021/10/07 07:04:15;;;;;;;12.30;8.75;;;14.20;99.90;;;;;;4751997;30;20048;-83
2021/10/07 07:06:43;;;;;;;10.98;8.10;;;14.20;99.90;;;;;;4751952;30;20363;-82
2021/10/07 07:09:10;;;;;;;11.63;8.35;;;14.10;99.90;;;;;;4744854;30;20020;-82
2021/10/07 07:11:36;;;;;;;10.50;7.65;;;14.10;99.90;;;;;;4748813;30;20088;-83
2021/10/07 07:14:02;;;;;;;10.82;8.85;;;14.10;99.90;;;;;;4742208;30;20233;-83
2021/10/07 07:16:29;;;;;;;12.63;9.90;;;14.10;99.90;;;;;;4751086;30;20064;-82
2021/10/07 07:18:55;;;;;;;13.18;8.93;;;14.10;99.90;;;;;;4751259;30;20028;-82
2021/10/07 07:21:23;;;;;;;12.45;8.95;;;14.10;99.90;;;;;;4746263;30;20036;-83
2021/10/07 07:23:52;;;;;;;12.63;9.40;;;14.10;99.90;;;;;;4741809;30;20043;-83
2021/10/07 07:26:23;;;;;;;12.38;8.95;;;14.20;99.90;;;;;;4745059;30;20031;-82
2021/10/07 07:28:51;;;;;;;11.95;8.80;;;14.30;99.90;;;;;;4762418;30;20138;-82
2021/10/07 07:31:18;;;;;;;10.73;8.32;;;14.30;99.90;;;;;;4753562;30;20068;-83
2021/10/07 07:33:46;;;;;;;10.27;8.37;;;14.30;99.90;;;;;;4742376;30;20034;-82
2021/10/07 07:36:16;;;;;;;8.30;7.28;;;14.40;99.90;;;;;;4736883;30;20032;-83
2021/10/07 07:38:42;;;;;;;13.68;7.43;;;14.50;99.90;;;;;;4748191;30;20024;-83
2021/10/07 07:41:10;;;;;;;10.95;8.60;;;14.60;99.90;;;;;;4747643;30;20036;-83
2021/10/07 07:43:36;;;;;;;12.60;8.40;;;14.60;99.90;;;;;;4739972;30;20016;-82
2021/10/07 07:46:02;;;;;;;12.60;9.40;;;14.60;99.90;;;;;;4748684;30;20055;-83
2021/10/07 07:48:28;;;;;;;10.15;8.85;;;14.60;99.90;;;;;;4734829;30;20040;-83
2021/10/07 07:50:53;;;;;;;11.00;9.40;;;14.60;99.90;;;;;;4741053;30;20036;-83
2021/10/07 07:53:19;;;;;;;11.93;9.57;;;14.60;99.90;;;;;;4746608;30;20039;-84
2021/10/07 07:55:45;;;;;;;13.70;10.50;;;14.60;99.90;;;;;;4749901;30;20038;-83
2021/10/07 07:58:12;;;;;;;13.90;9.98;;;14.60;99.90;;;;;;4737039;30;20040;-83
2021/10/07 08:00:39;;;;;;;15.57;11.45;;;14.60;99.90;;;;;;4752011;30;20324;-83
2021/10/07 08:03:05;;;;;;;12.27;10.05;;;14.60;99.90;;;;;;4737175;30;20078;-83
2021/10/07 08:05:32;;;;;;;16.87;10.73;;;14.60;99.90;;;;;;4737570;30;20407;-83
2021/10/07 08:07:57;;;;;;;15.73;11.55;;;14.60;99.90;;;;;;4751750;30;20269;-83
2021/10/07 08:10:23;;;;;;;14.23;10.15;;;14.70;99.90;;;;;;4736565;30;20043;-83
2021/10/07 08:12:50;;;;;;;12.40;9.68;;;14.70;99.90;;;;;;4736946;30;20341;-82
2021/10/07 08:15:16;;;;;;;14.05;10.18;;;14.70;99.90;;;;;;4751555;30;20111;-82
2021/10/07 08:17:42;;;;;;;12.03;10.20;;;14.70;99.90;;;;;;4724274;30;20029;-82
2021/10/07 08:20:11;;;;;;;13.65;9.98;;;14.80;99.90;;;;;;4748534;30;20063;-82
2021/10/07 08:22:39;;;;;;;13.60;10.93;;;14.80;99.90;;;;;;4734377;30;20040;-82
2021/10/07 08:25:05;;;;;;;14.95;10.77;;;14.80;99.90;;;;;;4748305;30;20056;-83
2021/10/07 08:27:31;;;;;;;13.60;10.50;;;14.80;99.90;;;;;;4747827;30;20096;-83
2021/10/07 08:29:57;;;;;;;14.77;11.52;;;14.70;99.90;;;;;;4733617;30;20332;-83
2021/10/07 08:32:23;;;;;;;18.55;12.13;;;14.70;99.90;;;;;;4733452;30;20334;-82
2021/10/07 08:34:49;;;;;;;18.17;11.60;;;14.60;99.90;;;;;;4734942;30;20041;-83
2021/10/07 08:37:15;;;;;;;17.80;12.82;;;14.70;99.90;;;;;;4734939;30;20047;-83
2021/10/07 08:39:41;;;;;;;19.33;12.75;;;14.70;99.90;;;;;;4751817;30;20047;-83
2021/10/07 08:42:06;;;;;;;21.50;12.88;;;14.80;99.90;;;;;;4736814;30;20062;-82
2021/10/07 08:44:32;;;;;;;18.33;13.05;;;14.80;99.90;;;;;;4735786;30;20100;-83
2021/10/07 08:46:58;;;;;;;18.25;12.77;;;14.90;99.90;;;;;;4728603;30;20072;-83
2021/10/07 08:49:27;;;;;;;14.88;11.98;;;15.00;99.90;;;;;;4733397;30;20029;-83
2021/10/07 08:51:54;;;;;;;17.10;12.05;;;15.00;99.90;;;;;;4733395;30;20324;-82
2021/10/07 08:54:20;;;;;;;17.60;12.20;;;15.10;99.90;;;;;;4718756;30;20036;-82
2021/10/07 08:56:46;;;;;;;16.58;12.18;;;15.20;99.90;;;;;;4733248;30;20040;-83
2021/10/07 08:59:14;;;;;;;15.02;11.02;;;15.20;99.90;;;;;;4717976;30;20094;-83
2021/10/07 09:01:45;;;;;;;13.25;11.18;;;15.20;99.90;;;;;;4717745;30;20041;-83
2021/10/07 09:04:23;;;;;;;15.98;12.32;;;15.20;99.90;;;;;;4718131;30;20340;-83
2021/10/07 09:06:55;;;;;;;16.95;12.30;;;15.20;99.90;;;;;;4718195;30;20037;-83
2021/10/07 09:09:21;;;;;;;14.15;11.18;;;15.20;99.90;;;;;;4718396;30;20028;-84
2021/10/07 09:12:05;;;;;;;14.32;11.75;;;15.30;99.90;;;;;;4733468;30;20055;-84
2021/10/07 09:14:37;;;;;;;15.35;10.40;;;15.30;99.90;;;;;;4733131;30;20082;-83
2021/10/07 09:17:06;;;;;;;16.27;11.98;;;15.20;99.90;;;;;;4732442;30;20040;-83
2021/10/07 09:19:39;;;;;;;21.00;12.45;;;15.20;99.90;;;;;;4736368;30;20074;-83
2021/10/07 09:22:17;;;;;;;16.10;12.57;;;15.10;99.90;;;;;;4750780;30;20071;-83
2021/10/07 09:24:51;;;;;;;16.60;13.35;;;15.10;99.90;;;;;;4751263;30;20036;-83
2021/10/07 09:27:24;;;;;;;19.42;13.25;;;15.10;99.90;;;;;;4755610;30;20111;-83
2021/10/07 09:29:56;;;;;;;20.70;13.85;;;15.10;99.90;;;;;;4769696;30;20031;-83
2021/10/07 09:32:30;;;;;;;16.38;13.57;;;15.10;99.90;;;;;;4769801;30;20035;-82
2021/10/07 09:34:58;;;;;;;16.52;12.82;;;15.10;99.90;;;;;;4770527;30;20024;-83
2021/10/07 09:37:25;;;;;;;17.95;13.23;;;15.20;99.90;;;;;;4784660;30;20231;-83
2021/10/07 09:39:57;;;;;;;17.48;13.10;;;15.20;99.90;;;;;;4769634;30;20031;-84
2021/10/07 09:42:29;;;;;;;16.08;11.73;;;15.20;99.90;;;;;;4769478;30;20050;-82
2021/10/07 09:45:23;;;;;;;15.15;12.48;;;15.30;99.90;;;;;;4783854;30;20038;-82
2021/10/07 09:47:55;;;;;;;18.00;12.35;;;15.40;99.90;;;;;;4759568;30;20049;-82
2021/10/07 09:50:26;;;;;;;16.83;13.10;;;15.30;99.90;;;;;;4734223;30;20348;-82
2021/10/07 09:53:13;;;;;;;15.02;11.68;;;15.40;99.90;;;;;;4747936;30;20028;-82
2021/10/07 09:55:48;;;;;;;21.10;14.90;;;15.40;99.90;;;;;;4733714;30;20036;-82
2021/10/07 09:58:19;;;;;;;16.65;13.13;;;15.30;99.90;;;;;;4735203;30;20043;-82
2021/10/07 10:00:56;;;;;;;14.98;12.48;;;15.20;99.90;;;;;;4734893;30;20047;-82
2021/10/07 10:03:24;;;;;;;18.48;14.23;;;15.30;99.90;;;;;;4734698;30;20102;-82
2021/10/07 10:05:52;;;;;;;16.63;13.40;;;15.30;99.90;;;;;;4736748;30;20040;-82
2021/10/07 10:08:20;;;;;;;22.13;14.77;;;15.40;99.90;;;;;;4738331;30;20020;-82
2021/10/07 10:10:47;;;;;;;17.63;13.63;;;15.40;99.90;;;;;;4739417;30;20024;-81
2021/10/07 10:13:14;;;;;;;18.80;14.27;;;15.40;99.90;;;;;;4740816;30;20040;-82
2021/10/07 10:15:40;;;;;;;;;;;15.40;99.90;;;;;;4771521;30;20067;-81
2021/10/07 10:18:13;;;;;;;18.03;13.20;;;15.30;99.90;;;;;;4740128;30;19910;-82
2021/10/07 10:20:42;;;;;;;20.30;13.18;;;15.30;99.90;;;;;;4755173;30;20036;-82
2021/10/07 10:23:14;;;;;;;17.35;12.27;;;15.40;99.90;;;;;;4756330;30;20101;-82
2021/10/07 10:26:12;;;;;;;14.93;11.75;;;15.40;99.90;;;;;;4770301;30;20044;-81
2021/10/07 10:28:38;;;;;;;13.73;11.63;;;15.40;99.90;;;;;;4768896;30;20079;-81
2021/10/07 10:31:15;;;;;;;15.23;11.98;;;15.50;99.90;;;;;;4787762;30;20036;-81
2021/10/07 10:33:45;;;;;;;16.05;12.40;;;15.50;99.90;;;;;;4772881;30;20087;-81
2021/10/07 10:36:29;;;;;;;15.57;13.15;;;15.60;99.90;;;;;;4787228;30;20032;-81
2021/10/07 10:39:19;;;;;;;15.27;13.00;;;15.70;99.90;;;;;;4772555;30;20024;-80
2021/10/07 10:41:45;;;;;;;15.13;12.30;;;15.70;99.90;;;;;;4773190;30;20042;-81
2021/10/07 10:44:30;;;;;;;17.00;12.95;;;15.70;99.90;;;;;;4772801;30;20039;-80
2021/10/07 10:47:08;;;;;;;17.17;12.77;;;15.60;99.90;;;;;;4771299;30;20079;-81
2021/10/07 10:49:57;;;;;;;16.77;12.55;;;15.60;99.90;;;;;;4771939;30;20040;-81
2021/10/07 10:52:22;;;;;;;18.20;12.15;;;15.60;99.90;;;;;;4686648;30;20361;-81
2021/10/07 10:54:54;;;;;;;13.13;11.13;;;15.60;99.90;;;;;;4701065;30;20039;-81
2021/10/07 10:57:41;;;;;;;15.23;11.68;;;15.60;99.90;;;;;;4687130;30;20053;-81
2021/10/07 11:00:15;;;;;;;;;;;15.50;99.90;;;;;;4687251;30;20162;-81
2021/10/07 11:02:43;;;;;;;15.50;12.35;;;15.50;99.90;;;;;;4700844;30;19968;-81
2021/10/07 11:05:17;;;;;;;15.48;12.40;;;15.50;99.90;;;;;;4686653;30;20041;-81
2021/10/07 11:07:43;;;;;;;15.75;13.02;;;15.50;99.90;;;;;;4714691;30;20080;-80
2021/10/07 11:10:12;;;;;;;16.90;13.85;;;15.50;99.90;;;;;;4700549;30;20122;-81
2021/10/07 11:12:55;;;;;;;17.58;13.40;;;15.50;99.90;;;;;;4685989;30;20029;-81
2021/10/07 11:15:23;;;;;;;19.20;14.20;;;15.60;99.90;;;;;;4685972;30;20048;-80
2021/10/07 11:17:50;;;;;;;19.92;14.95;;;15.60;99.90;;;;;;4700427;30;20033;-80
2021/10/07 11:20:21;;;;;;;18.05;15.00;;;15.60;99.90;;;;;;4685989;30;20037;-80
2021/10/07 11:23:07;;;;;;;19.42;14.50;;;15.60;99.90;;;;;;4700043;30;20110;-80
2021/10/07 11:25:35;;;;;;;18.42;14.93;;;15.70;99.90;;;;;;4686950;30;20045;-80
2021/10/07 11:28:02;;;;;;;21.02;16.10;;;15.70;99.90;;;;;;4686836;30;20078;-80
2021/10/07 11:30:29;;;;;;;20.47;16.03;;;15.70;99.90;;;;;;4765552;30;20125;-80
2021/10/07 11:33:00;;;;;;;18.98;16.45;;;15.70;99.90;;;;;;4768326;30;20024;-79
2021/10/07 11:35:29;;;;;;;23.38;17.73;;;15.70;99.90;;;;;;4769286;30;20112;-79
2021/10/07 11:38:03;;;;;;;20.85;16.38;;;15.70;99.90;;;;;;4769935;30;20060;-80
2021/10/07 11:40:54;;;;;;;23.02;17.65;;;15.70;99.90;;;;;;4768841;30;20036;-81
2021/10/07 11:43:24;;;;;;;23.70;18.73;;;15.70;99.90;;;;;;4767764;30;20043;-81
2021/10/07 11:45:59;;;;;;;21.63;17.20;;;15.80;99.90;;;;;;4768668;30;20315;-80
2021/10/07 11:48:26;;;;;;;24.20;16.75;;;15.90;99.90;;;;;;4735450;30;20033;-81
2021/10/07 11:50:54;;;;;;;21.38;17.35;;;15.80;99.90;;;;;;4735881;30;20213;-80
2021/10/07 11:53:54;;;;;;;26.65;17.02;;;15.80;99.90;;;;;;4735119;30;20104;-81
2021/10/07 11:56:25;;;;;;;20.77;16.33;;;15.80;99.90;;;;;;4668025;30;20073;-80
2021/10/07 11:58:57;;;;;;;23.52;17.67;;;15.70;99.90;;;;;;4697736;30;20045;-81
2021/10/07 12:01:28;;;;;;;24.77;18.13;;;15.80;99.90;;;;;;4696769;30;20034;-80
2021/10/07 12:04:01;;;;;;;21.92;17.58;;;15.80;99.90;;;;;;4696891;30;20044;-80
2021/10/07 12:06:28;;;;;;;22.25;18.15;;;15.80;99.90;;;;;;4696116;30;20046;-80
2021/10/07 12:08:54;;;;;;;21.40;17.13;;;15.90;99.90;;;;;;4696138;30;20045;-80
2021/10/07 12:11:22;;;;;;;22.33;16.67;;;16.00;99.90;;;;;;4681514;30;20034;-81
2021/10/07 12:13:57;;;;;;;23.48;17.20;;;16.00;99.90;;;;;;4681878;30;20037;-81
2021/10/07 12:16:29;;;;;;;20.17;16.77;;;16.00;99.90;;;;;;4682442;30;20041;-81
2021/10/07 12:19:03;;;;;;;19.23;16.08;;;15.80;99.90;;;;;;4682656;30;20045;-80
2021/10/07 12:21:34;;;;;;;20.08;16.33;;;15.80;99.90;;;;;;4682768;30;20268;-80
2021/10/07 12:24:00;;;;;;;18.10;15.52;;;15.90;99.90;;;;;;4696954;30;20038;-81
2021/10/07 12:26:40;;;;;;;20.60;16.80;;;15.80;99.90;;;;;;4682507;30;20065;-81
2021/10/07 12:29:07;;;;;;;26.30;17.90;;;15.80;99.90;;;;;;4713706;30;20033;-80
2021/10/07 12:31:33;;;;;;;20.00;15.70;;;15.80;99.90;;;;;;4720023;30;20024;-81
2021/10/07 12:34:05;;;;;;;19.67;16.67;;;15.60;99.90;;;;;;4752136;30;20025;-82
2021/10/07 12:36:41;;;;;;;19.52;15.90;;;15.60;99.90;;;;;;4752480;30;20032;-82
2021/10/07 12:39:23;;;;;;;21.02;16.98;;;15.60;99.90;;;;;;4752598;30;20043;-81
2021/10/07 12:41:54;;;;;;;21.95;17.20;;;15.60;99.90;;;;;;4752148;30;20038;-82
2021/10/07 12:44:29;;;;;;;22.85;16.73;;;15.60;99.90;;;;;;4751697;30;20049;-82
2021/10/07 12:46:58;;;;;;;24.98;16.58;;;15.60;99.90;;;;;;4758906;30;20051;-82
2021/10/07 12:49:40;;;;;;;18.55;15.57;;;15.60;99.90;;;;;;4769946;30;20031;-81
2021/10/07 12:52:18;;;;;;;20.50;15.20;;;15.70;99.90;;;;;;4754943;30;20209;-81
2021/10/07 12:54:57;;;;;;;19.50;15.68;;;15.70;99.90;;;;;;4762910;30;20083;-82
2021/10/07 12:57:46;;;;;;;15.02;13.23;;;15.70;99.90;;;;;;4751922;30;20070;-82
2021/10/07 13:00:19;;;;;;;20.00;14.00;;;15.80;99.90;;;;;;4737470;30;20040;-82
2021/10/07 13:02:46;;;;;;;18.02;13.30;;;15.70;99.90;;;;;;4752214;30;20062;-82
2021/10/07 13:05:22;;;;;;;18.98;14.43;;;15.70;99.90;;;;;;4737047;30;20044;-82
2021/10/07 13:07:54;;;;;;;18.23;13.15;;;15.70;99.90;;;;;;4766599;30;20035;-82
2021/10/07 13:10:20;;;;;;;16.75;13.18;;;15.80;99.90;;;;;;4752401;30;20036;-82
2021/10/07 13:12:47;;;;;;;15.50;13.17;;;15.80;99.90;;;;;;4751788;30;20050;-82
2021/10/07 13:15:13;;;;;;;17.75;14.00;;;15.80;99.90;;;;;;4751455;30;20043;-83
2021/10/07 13:17:39;;;;;;;15.98;11.57;;;15.80;99.90;;;;;;4750729;30;20059;-82
2021/10/07 13:20:07;;;;;;;15.63;12.00;;;15.70;99.90;;;;;;4751578;30;20035;-79
2021/10/07 13:22:33;;;;;;;15.88;12.55;;;15.80;99.90;;;;;;4736589;30;20042;-80
2021/10/07 13:24:59;;;;;;;15.10;11.70;;;15.80;99.90;;;;;;4738052;30;20051;-80
2021/10/07 13:27:25;;;;;;;16.38;12.18;;;15.70;99.90;;;;;;4756964;30;20032;-82
2021/10/07 13:29:54;;;;;;;18.27;12.65;;;15.70;99.90;;;;;;4769865;30;20096;-80
2021/10/07 13:32:21;;;;;;;14.45;11.20;;;15.70;99.90;;;;;;4769867;30;20106;-80
2021/10/07 13:34:47;;;;;;;16.15;11.32;;;15.70;99.90;;;;;;4769454;30;20043;-80
2021/10/07 13:37:14;;;;;;;18.08;12.15;;;15.70;99.90;;;;;;4753957;30;20044;-81
2021/10/07 13:39:40;;;;;;;;;;;15.70;99.90;;;;;;4737037;30;20390;-81
2021/10/07 13:42:06;;;;;;;17.70;10.73;;;15.80;99.90;;;;;;4736412;30;19941;-81
2021/10/07 13:44:32;;;;;;;14.95;10.57;;;15.80;99.90;;;;;;4766007;30;20077;-80
2021/10/07 13:46:58;;;;;;;17.02;11.00;;;15.80;99.90;;;;;;4736207;30;20047;-81
2021/10/07 13:49:24;;;;;;;14.32;11.77;;;15.90;99.90;;;;;;4745951;30;20045;-81
2021/10/07 13:51:49;;;;;;;17.10;11.65;;;15.90;99.90;;;;;;4752181;30;20040;-81
2021/10/07 13:54:15;;;;;;;16.52;10.98;;;15.80;99.90;;;;;;4751030;30;20557;-81
2021/10/07 13:56:42;;;;;;;15.05;10.90;;;15.80;99.90;;;;;;4751024;30;20032;-81
2021/10/07 13:59:08;;;;;;;;;;;15.70;99.90;;;;;;4753439;30;20048;-81
2021/10/07 14:01:34;;;;;;;12.37;9.63;;;15.60;99.90;;;;;;4748596;30;19906;-81
2021/10/07 14:04:00;;;;;;;20.33;10.32;;;15.70;99.90;;;;;;4733336;30;20036;-81
2021/10/07 14:06:26;;;;;;;15.05;10.05;;;15.70;99.90;;;;;;4733080;30;20040;-81
2021/10/07 14:08:52;;;;;;;15.55;9.77;;;15.70;99.90;;;;;;4748674;30;20141;-81
2021/10/07 14:11:18;;;;;;;13.32;10.65;;;15.70;99.90;;;;;;4747594;30;20104;-81
2021/10/07 14:13:43;;;;;;;13.40;11.35;;;15.70;99.90;;;;;;4734494;30;20031;-81
2021/10/07 14:16:09;;;;;;;15.95;11.35;;;15.70;99.90;;;;;;4751192;30;20032;-81
2021/10/07 14:18:35;;;;;;;14.13;10.82;;;15.70;99.90;;;;;;4757644;30;20037;-81
2021/10/07 14:21:01;;;;;;;12.77;10.35;;;15.70;99.90;;;;;;4720143;30;20047;-81
2021/10/07 14:23:27;;;;;;;20.48;11.70;;;15.70;99.90;;;;;;4719211;30;20347;-81
2021/10/07 14:25:54;;;;;;;17.33;9.63;;;15.60;99.90;;;;;;4718343;30;20032;-81
2021/10/07 14:28:20;;;;;;;21.05;10.48;;;15.60;99.90;;;;;;4742120;30;20047;-82
2021/10/07 14:30:48;;;;;;;13.80;10.77;;;15.60;99.90;;;;;;4765679;30;20089;-80
2021/10/07 14:33:16;;;;;;;13.27;10.70;;;15.60;99.90;;;;;;4736222;30;20043;-81
2021/10/07 14:35:42;;;;;;;13.52;10.93;;;15.50;99.90;;;;;;4765885;30;20058;-81
2021/10/07 14:38:08;;;;;;;12.05;10.60;;;15.50;99.90;;;;;;4751569;30;20328;-81
2021/10/07 14:40:33;;;;;;;13.63;10.20;;;15.60;99.90;;;;;;4736075;30;20081;-80
2021/10/07 14:42:59;;;;;;;16.83;11.10;;;15.50;99.90;;;;;;4736449;30;20047;-81
2021/10/07 14:45:29;;;;;;;18.88;11.07;;;15.50;99.90;;;;;;4736013;30;20032;-81
2021/10/07 14:47:56;;;;;;;15.35;11.18;;;15.40;99.90;;;;;;4735904;30;20059;-80
2021/10/07 14:50:22;;;;;;;16.10;10.63;;;15.40;99.90;;;;;;4765511;30;20032;-81
2021/10/07 14:52:48;;;;;;;16.17;11.50;;;15.50;99.90;;;;;;4739085;30;20082;-81
2021/10/07 14:55:15;;;;;;;14.23;10.52;;;15.50;99.90;;;;;;4738732;30;20028;-81
2021/10/07 14:57:41;;;;;;;;;;;15.50;99.90;;;;;;4742719;30;20079;-82
2021/10/07 15:00:10;;;;;;;17.57;11.60;;;15.40;99.90;;;;;;4754524;30;19981;-82
2021/10/07 15:02:38;;;;;;;15.02;11.35;;;15.40;99.90;;;;;;4768533;30;20058;-82
2021/10/07 15:05:05;;;;;;;16.10;10.95;;;15.40;99.90;;;;;;4767576;30;20040;-82
2021/10/07 15:07:32;;;;;;;15.82;11.95;;;15.40;99.90;;;;;;4755777;30;20024;-82
2021/10/07 15:09:57;;;;;;;16.83;10.80;;;15.40;99.90;;;;;;4721117;30;20037;-82
2021/10/07 15:12:23;;;;;;;15.85;11.20;;;15.40;99.90;;;;;;4736050;30;20095;-82
2021/10/07 15:14:49;;;;;;;17.95;10.93;;;15.50;99.90;;;;;;4721025;30;20047;-81
2021/10/07 15:17:15;;;;;;;14.43;10.25;;;15.40;99.90;;;;;;4735011;30;20156;-82
2021/10/07 15:19:41;;;;;;;15.35;10.43;;;15.40;99.90;;;;;;4739608;30;20235;-82
2021/10/07 15:22:12;;;;;;;14.63;11.20;;;15.40;99.90;;;;;;4756258;30;20038;-82
2021/10/07 15:24:38;;;;;;;15.07;10.40;;;15.40;99.90;;;;;;4753340;30;20044;-82